createdAt,value
2023-04-03T00:01:25.921Z,7.05
2023-04-03T00:03:53.859Z,7.06
2023-04-03T00:06:21.845Z,7.05
2023-04-03T00:08:49.861Z,7.04
2023-04-03T00:11:18.468Z,7.03
2023-04-03T00:13:46.481Z,7.02
2023-04-03T00:16:14.482Z,6.98
2023-04-03T00:18:42.802Z,6.96
2023-04-03T00:21:14.192Z,6.94
2023-04-03T00:23:43.017Z,6.95
2023-04-03T00:26:11.663Z,6.94
2023-04-03T00:28:40.667Z,6.94
2023-04-03T00:31:08.989Z,6.95
2023-04-03T00:33:37.074Z,6.96
2023-04-03T00:36:10.562Z,6.98
2023-04-03T00:38:38.628Z,6.99
2023-04-03T00:41:08.168Z,6.98
2023-04-03T00:43:36.960Z,6.96
2023-04-03T00:46:05.546Z,6.94
2023-04-03T00:48:48.491Z,6.92
2023-04-03T00:51:22.146Z,6.90
2023-04-03T00:54:00.498Z,6.86
2023-04-03T00:56:31.330Z,6.85
2023-04-03T00:59:05.341Z,6.86
2023-04-03T01:01:33.692Z,6.88
2023-04-03T01:04:04.350Z,6.88
2023-04-03T01:06:37.488Z,6.89
2023-04-03T01:09:09.551Z,6.89
2023-04-03T01:11:37.526Z,6.85
2023-04-03T01:14:07.199Z,6.83
2023-04-03T01:16:35.852Z,6.78
2023-04-03T01:19:04.843Z,6.73
2023-04-03T01:21:55.905Z,6.70
2023-04-03T01:24:26.844Z,6.65
2023-04-03T01:26:55.614Z,6.59
2023-04-03T01:29:23.624Z,6.52
2023-04-03T01:32:01.104Z,6.45
2023-04-03T01:34:31.265Z,6.38
2023-04-03T01:37:00.059Z,6.35
2023-04-03T01:39:28.130Z,6.33
2023-04-03T01:41:56.479Z,6.34
2023-04-03T01:44:36.416Z,6.36
2023-04-03T01:47:07.469Z,6.36
2023-04-03T01:49:36.094Z,6.38
2023-04-03T01:52:04.365Z,6.39
2023-04-03T01:54:32.488Z,6.38
2023-04-03T01:57:00.464Z,6.35
2023-04-03T01:59:29.334Z,6.32
2023-04-03T02:01:57.821Z,6.29
2023-04-03T02:04:26.331Z,6.25
2023-04-03T02:06:54.283Z,6.19
2023-04-03T02:09:22.403Z,6.13
2023-04-03T02:11:51.167Z,6.12
2023-04-03T02:14:19.166Z,6.12
2023-04-03T02:16:47.146Z,6.12
2023-04-03T02:19:15.677Z,6.13
2023-04-03T02:21:43.888Z,6.10
2023-04-03T02:24:11.926Z,6.11
2023-04-03T02:26:39.956Z,6.11
2023-04-03T02:29:08.146Z,6.08
2023-04-03T02:31:36.720Z,6.03
2023-04-03T02:34:05.267Z,6.02
2023-04-03T02:36:33.268Z,5.96
2023-04-03T02:39:04.483Z,5.93
2023-04-03T02:41:38.567Z,5.89
2023-04-03T02:44:12.158Z,5.85
2023-04-03T02:46:40.956Z,5.81
2023-04-03T02:49:09.027Z,5.79
2023-04-03T02:51:37.176Z,5.72
2023-04-03T02:54:05.416Z,5.69
2023-04-03T02:56:35.459Z,5.65
2023-04-03T02:59:04.285Z,5.65
2023-04-03T03:01:33.929Z,5.60
2023-04-03T03:04:02.000Z,5.57
2023-04-03T03:06:30.036Z,5.52
2023-04-03T03:08:58.011Z,5.46
2023-04-03T03:11:26.633Z,5.30
2023-04-03T03:13:54.734Z,5.27
2023-04-03T03:16:22.745Z,5.30
2023-04-03T03:18:51.234Z,5.34
2023-04-03T03:21:19.432Z,5.33
2023-04-03T03:23:47.541Z,5.31
2023-04-03T03:26:15.650Z,5.30
2023-04-03T03:28:43.620Z,5.28
2023-04-03T03:31:13.564Z,5.22
2023-04-03T03:33:42.418Z,5.24
2023-04-03T03:36:10.586Z,5.25
2023-04-03T03:38:39.116Z,5.24
2023-04-03T03:41:07.501Z,5.27
2023-04-03T03:43:36.552Z,5.28
2023-04-03T03:46:06.085Z,5.29
2023-04-03T03:48:34.470Z,5.31
2023-04-03T03:51:03.223Z,5.31
2023-04-03T03:53:34.585Z,5.30
2023-04-03T03:56:06.755Z,5.26
2023-04-03T03:58:36.008Z,5.22
2023-04-03T04:01:07.016Z,5.19
2023-04-03T04:03:36.981Z,5.17
2023-04-03T04:06:06.226Z,5.09
2023-04-03T04:08:34.274Z,5.16
2023-04-03T04:11:02.637Z,5.20
2023-04-03T04:13:31.135Z,5.23
2023-04-03T04:15:59.902Z,5.26
2023-04-03T04:18:27.913Z,5.26
2023-04-03T04:20:56.000Z,5.26
2023-04-03T04:23:24.336Z,5.20
2023-04-03T04:25:52.544Z,5.15
2023-04-03T04:28:21.385Z,5.20
2023-04-03T04:30:50.415Z,5.24
2023-04-03T04:33:20.126Z,5.29
2023-04-03T04:35:49.852Z,5.38
2023-04-03T04:38:19.109Z,5.48
2023-04-03T04:40:49.438Z,5.56
2023-04-03T04:43:17.674Z,5.55
2023-04-03T04:45:47.984Z,5.60
2023-04-03T04:48:18.278Z,5.65
2023-04-03T04:50:47.011Z,5.69
2023-04-03T04:53:14.988Z,5.67
2023-04-03T04:55:44.259Z,5.66
2023-04-03T04:58:12.824Z,5.63
2023-04-03T05:00:41.365Z,5.59
2023-04-03T05:03:09.726Z,5.62
2023-04-03T05:05:38.670Z,5.66
2023-04-03T05:08:07.431Z,5.68
2023-04-03T05:10:35.818Z,5.73
2023-04-03T05:13:04.055Z,5.78
2023-04-03T05:15:32.450Z,5.82
2023-04-03T05:18:01.271Z,5.70
2023-04-03T05:20:29.617Z,5.75
2023-04-03T05:22:57.637Z,5.92
2023-04-03T05:25:27.076Z,6.06
2023-04-03T05:27:57.154Z,6.22
2023-04-03T05:30:25.751Z,6.40
2023-04-03T05:32:55.016Z,6.73
2023-04-03T05:35:30.951Z,7.01
2023-04-03T05:38:00.380Z,6.88
2023-04-03T05:40:28.728Z,6.78
2023-04-03T05:42:57.851Z,7.08
2023-04-03T05:45:26.657Z,7.17
2023-04-03T05:47:54.778Z,7.23
2023-04-03T05:50:23.242Z,7.26
2023-04-03T05:52:56.459Z,7.18
2023-04-03T05:55:24.797Z,7.13
2023-04-03T05:57:53.123Z,7.06
2023-04-03T06:00:22.555Z,6.97
2023-04-03T06:02:56.717Z,6.85
2023-04-03T06:05:26.210Z,6.85
2023-04-03T06:07:54.796Z,7.01
2023-04-03T06:10:22.934Z,7.09
2023-04-03T06:12:52.507Z,7.12
2023-04-03T06:15:21.469Z,7.14
2023-04-03T06:17:49.894Z,7.08
2023-04-03T06:20:18.630Z,7.06
2023-04-03T06:22:47.285Z,7.11
2023-04-03T06:25:15.671Z,7.06
2023-04-03T06:27:43.844Z,7.10
2023-04-03T06:30:12.687Z,7.11
2023-04-03T06:32:41.572Z,6.93
2023-04-03T06:35:10.241Z,7.01
2023-04-03T06:37:38.622Z,6.95
2023-04-03T06:40:07.893Z,6.97
2023-04-03T06:42:36.034Z,7.08
2023-04-03T06:45:12.980Z,7.19
2023-04-03T06:47:41.795Z,7.24
2023-04-03T06:50:15.118Z,7.26
2023-04-03T06:52:43.302Z,7.27
2023-04-03T06:55:11.791Z,7.37
2023-04-03T06:57:39.906Z,7.36
2023-04-03T07:00:08.599Z,7.19
2023-04-03T07:02:36.869Z,7.26
2023-04-03T07:05:05.795Z,7.31
2023-04-03T07:07:35.342Z,7.37
2023-04-03T07:10:03.879Z,7.47
2023-04-03T07:12:32.148Z,7.53
2023-04-03T07:15:00.709Z,7.44
2023-04-03T07:17:29.444Z,7.45
2023-04-03T07:19:57.940Z,7.59
2023-04-03T07:22:26.465Z,7.74
2023-04-03T07:24:54.849Z,7.92
2023-04-03T07:27:23.708Z,8.05
2023-04-03T07:29:53.414Z,7.87
2023-04-03T07:32:22.468Z,7.80
2023-04-03T07:34:51.264Z,7.92
2023-04-03T07:37:19.837Z,7.91
2023-04-03T07:39:50.101Z,7.89
2023-04-03T07:42:19.141Z,7.68
2023-04-03T07:44:47.642Z,7.80
2023-04-03T07:47:17.805Z,7.89
2023-04-03T07:49:45.925Z,7.93
2023-04-03T07:52:15.887Z,8.05
2023-04-03T07:54:44.334Z,8.17
2023-04-03T07:57:12.889Z,8.32
2023-04-03T07:59:42.279Z,8.49
2023-04-03T08:02:11.783Z,8.46
2023-04-03T08:04:41.038Z,8.61
2023-04-03T08:07:09.867Z,8.70
2023-04-03T08:09:38.496Z,8.86
2023-04-03T08:12:09.300Z,8.86
2023-04-03T08:14:37.428Z,8.62
2023-04-03T08:17:06.198Z,8.58
2023-04-03T08:19:34.539Z,8.70
2023-04-03T08:22:04.148Z,8.57
2023-04-03T08:24:34.249Z,8.52
2023-04-03T08:27:02.914Z,8.37
2023-04-03T08:29:32.435Z,8.03
2023-04-03T08:32:02.362Z,7.82
2023-04-03T08:34:30.783Z,7.77
2023-04-03T08:36:59.013Z,7.97
2023-04-03T08:39:27.457Z,7.95
2023-04-03T08:41:59.814Z,7.77
2023-04-03T08:44:37.509Z,7.76
2023-04-03T08:47:39.315Z,7.79
2023-04-03T08:50:14.092Z,7.92
2023-04-03T08:52:46.728Z,8.22
2023-04-03T08:55:32.099Z,8.71
2023-04-03T08:58:06.898Z,9.27
2023-04-03T09:00:50.931Z,9.53
2023-04-03T09:03:22.165Z,9.82
2023-04-03T09:06:09.174Z,10.08
2023-04-03T09:08:46.484Z,10.21
2023-04-03T09:11:17.502Z,10.08
2023-04-03T09:13:48.628Z,10.41
2023-04-03T09:16:36.298Z,10.57
2023-04-03T09:19:28.144Z,10.73
2023-04-03T09:21:59.003Z,10.32
2023-04-03T09:24:27.890Z,10.18
2023-04-03T09:27:05.236Z,10.32
2023-04-03T09:29:37.522Z,10.38
2023-04-03T09:32:22.318Z,10.27
2023-04-03T09:34:52.591Z,10.09
2023-04-03T09:37:39.976Z,10.06
2023-04-03T09:40:27.696Z,9.88
2023-04-03T09:43:02.023Z,9.82
2023-04-03T09:45:34.064Z,9.57
2023-04-03T09:48:17.362Z,9.76
2023-04-03T09:50:51.727Z,9.91
2023-04-03T09:53:49.640Z,9.57
2023-04-03T09:56:17.985Z,9.27
2023-04-03T09:58:52.056Z,9.38
2023-04-03T10:01:31.284Z,9.53
2023-04-03T10:04:26.478Z,9.58
2023-04-03T10:06:58.278Z,9.48
2023-04-03T10:09:27.972Z,9.28
2023-04-03T10:12:06.282Z,9.04
2023-04-03T10:14:37.296Z,9.16
2023-04-03T10:17:30.404Z,9.23
2023-04-03T10:20:14.600Z,9.18
2023-04-03T10:23:19.017Z,9.14
2023-04-03T10:26:34.048Z,8.89
2023-04-03T10:29:30.053Z,8.53
2023-04-03T10:32:12.793Z,8.58
2023-04-03T10:34:51.683Z,8.64
2023-04-03T10:37:42.918Z,8.91
2023-04-03T10:40:32.391Z,9.10
2023-04-03T10:43:16.057Z,9.21
2023-04-03T10:46:06.203Z,9.21
2023-04-03T10:49:16.115Z,9.10
2023-04-03T10:51:56.882Z,8.85
2023-04-03T10:54:42.544Z,8.52
2023-04-03T10:57:14.062Z,8.52
2023-04-03T10:59:44.963Z,8.62
2023-04-03T11:02:25.317Z,8.73
2023-04-03T11:05:03.775Z,8.70
2023-04-03T11:07:40.751Z,8.59
2023-04-03T11:10:25.376Z,8.55
2023-04-03T11:13:01.092Z,8.53
2023-04-03T11:15:32.068Z,8.46
2023-04-03T11:18:23.914Z,8.35
2023-04-03T11:21:05.117Z,8.33
2023-04-03T11:23:49.067Z,8.28
2023-04-03T11:26:23.250Z,8.24
2023-04-03T11:29:00.154Z,8.22
2023-04-03T11:31:44.225Z,8.13
2023-04-03T11:34:44.447Z,8.07
2023-04-03T11:37:18.979Z,8.14
2023-04-03T11:39:56.652Z,8.15
2023-04-03T11:42:42.447Z,8.10
2023-04-03T11:45:30.488Z,8.24
2023-04-03T11:48:07.314Z,8.28
2023-04-03T11:50:48.311Z,8.34
2023-04-03T11:53:16.894Z,8.33
2023-04-03T11:55:49.735Z,8.26
2023-04-03T11:58:20.392Z,8.12
2023-04-03T12:00:56.229Z,8.05
2023-04-03T12:03:25.051Z,8.02
2023-04-03T12:06:06.313Z,8.08
2023-04-03T12:08:34.711Z,8.02
2023-04-03T12:11:11.838Z,7.97
2023-04-03T12:13:59.605Z,7.81
2023-04-03T12:16:35.169Z,7.87
2023-04-03T12:19:32.261Z,8.00
2023-04-03T12:22:15.591Z,8.15
2023-04-03T12:24:49.539Z,8.25
2023-04-03T12:27:25.774Z,8.29
2023-04-03T12:30:05.871Z,8.41
2023-04-03T12:32:41.917Z,8.58
2023-04-03T12:35:15.535Z,8.69
2023-04-03T12:38:02.152Z,8.77
2023-04-03T12:40:58.455Z,8.73
2023-04-03T12:43:38.253Z,8.63
2023-04-03T12:46:17.418Z,8.65
2023-04-03T12:48:46.024Z,8.60
2023-04-03T12:51:36.190Z,8.58
2023-04-03T12:54:41.127Z,8.61
2023-04-03T12:57:31.661Z,8.70
2023-04-03T13:00:01.054Z,8.53
2023-04-03T13:02:31.617Z,8.52
2023-04-03T13:05:08.303Z,8.50
2023-04-03T13:07:40.144Z,8.59
2023-04-03T13:10:08.864Z,8.53
2023-04-03T13:13:09.798Z,8.46
2023-04-03T13:15:44.308Z,8.67
2023-04-03T13:18:29.830Z,8.83
2023-04-03T13:21:04.037Z,8.97
2023-04-03T13:23:36.130Z,9.03
2023-04-03T13:26:07.905Z,9.07
2023-04-03T13:28:37.909Z,9.12
2023-04-03T13:31:20.743Z,9.12
2023-04-03T13:34:14.447Z,9.15
2023-04-03T13:37:05.595Z,8.86
2023-04-03T13:39:39.552Z,8.92
2023-04-03T13:42:25.951Z,9.01
2023-04-03T13:45:25.403Z,9.07
2023-04-03T13:47:56.295Z,9.12
2023-04-03T13:50:26.895Z,9.17
2023-04-03T13:53:02.202Z,9.20
2023-04-03T13:55:37.747Z,9.05
2023-04-03T13:58:09.071Z,8.99
2023-04-03T14:00:39.006Z,8.81
2023-04-03T14:03:30.169Z,8.69
2023-04-03T14:05:58.968Z,8.68
2023-04-03T14:08:41.780Z,8.72
2023-04-03T14:11:15.633Z,8.74
2023-04-03T14:13:45.585Z,8.82
2023-04-03T14:16:17.928Z,8.87
2023-04-03T14:18:49.069Z,8.74
2023-04-03T14:21:18.742Z,8.70
2023-04-03T14:23:47.519Z,8.45
2023-04-03T14:26:22.477Z,8.59
2023-04-03T14:28:54.652Z,8.64
2023-04-03T14:31:23.472Z,8.48
2023-04-03T14:33:51.673Z,8.36
2023-04-03T14:36:24.434Z,8.48
2023-04-03T14:38:54.028Z,8.50
2023-04-03T14:41:26.242Z,8.46
2023-04-03T14:43:54.865Z,8.50
2023-04-03T14:46:45.522Z,8.57
2023-04-03T14:49:23.700Z,8.53
2023-04-03T14:51:51.897Z,8.50
2023-04-03T14:54:26.707Z,8.50
2023-04-03T14:56:56.937Z,8.57
2023-04-03T14:59:26.021Z,8.58
2023-04-03T15:01:54.293Z,8.65
2023-04-03T15:04:22.520Z,8.64
2023-04-03T15:06:52.799Z,8.66
2023-04-03T15:09:22.863Z,8.65
2023-04-03T15:11:52.751Z,8.61
2023-04-03T15:14:35.275Z,8.60
2023-04-03T15:17:07.093Z,8.57
2023-04-03T15:19:39.067Z,8.56
2023-04-03T15:22:07.757Z,8.47
2023-04-03T15:24:36.317Z,8.40
2023-04-03T15:27:04.839Z,8.38
2023-04-03T15:29:33.137Z,8.28
2023-04-03T15:32:01.765Z,8.26
2023-04-03T15:34:29.978Z,8.26
2023-04-03T15:36:58.684Z,8.23
2023-04-03T15:39:27.520Z,8.23
2023-04-03T15:41:56.189Z,8.24
2023-04-03T15:44:24.654Z,8.24
2023-04-03T15:46:52.974Z,8.24
2023-04-03T15:49:23.414Z,8.24
2023-04-03T15:51:51.917Z,8.25
2023-04-03T15:54:20.136Z,8.29
2023-04-03T15:56:48.460Z,8.35
2023-04-03T15:59:17.018Z,8.41
2023-04-03T16:01:45.138Z,8.42
2023-04-03T16:04:14.842Z,8.46
2023-04-03T16:06:44.577Z,8.46
2023-04-03T16:09:12.931Z,8.42
2023-04-03T16:11:41.241Z,8.32
2023-04-03T16:14:09.564Z,8.24
2023-04-03T16:16:38.625Z,8.22
2023-04-03T16:19:06.820Z,8.20
2023-04-03T16:21:35.034Z,8.22
2023-04-03T16:24:03.628Z,8.21
2023-04-03T16:26:32.023Z,8.24
2023-04-03T16:29:00.494Z,8.25
2023-04-03T16:31:29.425Z,8.27
2023-04-03T16:33:57.915Z,8.26
2023-04-03T16:36:26.888Z,8.26
2023-04-03T16:38:55.170Z,8.20
2023-04-03T16:41:23.668Z,8.22
2023-04-03T16:43:51.946Z,8.21
2023-04-03T16:46:20.143Z,8.22
2023-04-03T16:48:50.272Z,8.23
2023-04-03T16:51:20.110Z,8.21
2023-04-03T16:53:48.510Z,8.19
2023-04-03T16:56:17.390Z,8.14
2023-04-03T16:58:46.168Z,8.05
2023-04-03T17:01:17.468Z,8.03
2023-04-03T17:03:46.107Z,7.98
2023-04-03T17:06:20.142Z,7.90
2023-04-03T17:08:50.771Z,7.86
2023-04-03T17:11:30.617Z,7.81
2023-04-03T17:13:58.765Z,7.82
2023-04-03T17:16:27.589Z,7.67
2023-04-03T17:18:56.631Z,7.61
2023-04-03T17:21:24.950Z,7.55
2023-04-03T17:23:58.773Z,7.57
2023-04-03T17:26:28.111Z,7.54
2023-04-03T17:28:57.348Z,7.50
2023-04-03T17:31:25.392Z,7.41
2023-04-03T17:33:54.141Z,7.38
2023-04-03T17:36:22.657Z,7.33
2023-04-03T17:38:51.967Z,7.27
2023-04-03T17:41:20.188Z,7.25
2023-04-03T17:43:48.464Z,7.19
2023-04-03T17:46:17.803Z,7.16
2023-04-03T17:48:46.374Z,7.14
2023-04-03T17:51:18.116Z,7.13
2023-04-03T17:53:47.415Z,7.12
2023-04-03T17:56:18.757Z,7.14
2023-04-03T17:58:47.261Z,7.10
2023-04-03T18:01:30.446Z,7.05
2023-04-03T18:04:02.517Z,6.99
2023-04-03T18:06:38.801Z,6.98
2023-04-03T18:09:29.155Z,6.92
2023-04-03T18:11:58.440Z,6.80
2023-04-03T18:14:28.176Z,6.73
2023-04-03T18:16:59.769Z,6.59
2023-04-03T18:19:29.774Z,6.59
2023-04-03T18:22:02.526Z,6.59
2023-04-03T18:24:33.995Z,6.56
2023-04-03T18:27:07.351Z,6.55
2023-04-03T18:29:38.445Z,6.56
2023-04-03T18:32:09.524Z,6.50
2023-04-03T18:34:38.226Z,6.50
2023-04-03T18:37:06.519Z,6.47
2023-04-03T18:39:34.669Z,6.36
2023-04-03T18:42:10.126Z,6.31
2023-04-03T18:44:40.961Z,6.25
2023-04-03T18:47:09.433Z,6.23
2023-04-03T18:49:40.909Z,6.20
2023-04-03T18:52:11.210Z,6.19
2023-04-03T18:54:39.643Z,6.21
2023-04-03T18:57:07.926Z,6.14
2023-04-03T18:59:37.710Z,6.16
2023-04-03T19:02:07.853Z,6.18
2023-04-03T19:04:36.858Z,6.15
2023-04-03T19:07:06.663Z,6.17
2023-04-03T19:09:35.140Z,6.16
2023-04-03T19:12:03.509Z,6.16
2023-04-03T19:14:31.806Z,6.13
2023-04-03T19:17:00.531Z,5.97
2023-04-03T19:19:28.837Z,5.85
2023-04-03T19:21:57.025Z,5.82
2023-04-03T19:24:25.394Z,5.75
2023-04-03T19:26:54.082Z,5.69
2023-04-03T19:29:22.221Z,5.67
2023-04-03T19:31:50.907Z,5.59
2023-04-03T19:34:19.292Z,5.55
2023-04-03T19:36:48.163Z,5.51
2023-04-03T19:39:16.471Z,5.47
2023-04-03T19:41:46.314Z,5.46
2023-04-03T19:44:14.341Z,5.44
2023-04-03T19:46:51.444Z,5.40
2023-04-03T19:49:20.189Z,5.32
2023-04-03T19:51:48.288Z,5.20
2023-04-03T19:54:16.470Z,5.15
2023-04-03T19:56:45.764Z,5.14
2023-04-03T19:59:14.082Z,5.09
2023-04-03T20:01:43.038Z,5.08
2023-04-03T20:04:11.416Z,5.07
2023-04-03T20:06:39.801Z,5.04
2023-04-03T20:09:08.137Z,5.05
2023-04-03T20:11:37.127Z,5.01
2023-04-03T20:14:05.083Z,5.00
2023-04-03T20:16:33.170Z,5.01
2023-04-03T20:19:01.489Z,5.00
2023-04-03T20:21:32.169Z,4.98
2023-04-03T20:24:02.201Z,4.94
2023-04-03T20:26:31.788Z,4.95
2023-04-03T20:29:02.736Z,4.86
2023-04-03T20:31:32.911Z,4.83
2023-04-03T20:34:01.671Z,4.80
2023-04-03T20:36:31.323Z,4.76
2023-04-03T20:38:59.966Z,4.73
2023-04-03T20:41:28.027Z,4.68
2023-04-03T20:43:56.018Z,4.68
2023-04-03T20:46:38.205Z,4.67
2023-04-03T20:49:10.818Z,4.64
2023-04-03T20:51:39.191Z,4.66
2023-04-03T20:54:07.411Z,4.74
2023-04-03T20:56:36.327Z,4.74
2023-04-03T20:59:05.161Z,4.71
2023-04-03T21:01:33.510Z,4.67
2023-04-03T21:04:11.638Z,4.68
2023-04-03T21:07:18.533Z,4.70
2023-04-03T21:10:24.842Z,4.69
2023-04-03T21:13:30.162Z,4.70
2023-04-03T21:16:00.892Z,4.67
2023-04-03T21:18:48.257Z,4.62
2023-04-03T21:21:23.237Z,4.60
2023-04-03T21:23:52.772Z,4.62
2023-04-03T21:26:22.534Z,4.63
2023-04-03T21:28:51.932Z,4.61
2023-04-03T21:31:23.588Z,4.64
2023-04-03T21:33:51.797Z,4.62
2023-04-03T21:36:19.781Z,4.62
2023-04-03T21:38:48.312Z,4.51
2023-04-03T21:41:16.404Z,4.53
2023-04-03T21:43:46.627Z,4.54
2023-04-03T21:46:14.769Z,4.53
2023-04-03T21:48:42.922Z,4.53
2023-04-03T21:51:11.111Z,4.54
2023-04-03T21:53:40.196Z,4.51
2023-04-03T21:56:08.502Z,4.45
2023-04-03T21:58:36.429Z,4.40
2023-04-03T22:01:12.134Z,4.39
2023-04-03T22:03:41.913Z,4.39
2023-04-03T22:06:15.569Z,4.34
2023-04-03T22:08:44.132Z,4.31
2023-04-03T22:11:14.891Z,4.31
2023-04-03T22:13:44.087Z,4.29
2023-04-03T22:16:12.963Z,4.29
2023-04-03T22:18:41.065Z,4.14
2023-04-03T22:21:09.420Z,4.10
2023-04-03T22:23:38.232Z,4.11
2023-04-03T22:26:08.219Z,4.12
2023-04-03T22:28:41.725Z,4.09
2023-04-03T22:31:10.979Z,4.02
2023-04-03T22:33:39.567Z,3.91
2023-04-03T22:36:09.395Z,3.81
2023-04-03T22:38:39.086Z,3.69
2023-04-03T22:41:08.248Z,3.56
2023-04-03T22:43:37.630Z,3.50
2023-04-03T22:46:08.629Z,3.51
2023-04-03T22:48:38.763Z,3.54
2023-04-03T22:51:07.747Z,3.48
2023-04-03T22:53:39.354Z,3.44
2023-04-03T22:56:08.847Z,3.48
2023-04-03T22:58:37.785Z,3.51
2023-04-03T23:01:16.061Z,3.51
2023-04-03T23:03:44.342Z,3.48
2023-04-03T23:06:13.624Z,3.44
2023-04-03T23:08:42.742Z,3.40
2023-04-03T23:11:10.730Z,3.34
2023-04-03T23:13:38.716Z,3.28
2023-04-03T23:16:07.175Z,3.27
2023-04-03T23:18:39.972Z,3.29
2023-04-03T23:21:09.654Z,3.17
2023-04-03T23:23:38.222Z,3.07
2023-04-03T23:26:06.695Z,2.92
2023-04-03T23:28:34.648Z,2.92
2023-04-03T23:31:06.854Z,2.84
2023-04-03T23:33:34.930Z,2.79
2023-04-03T23:36:08.161Z,2.75
2023-04-03T23:38:36.928Z,2.69
2023-04-03T23:41:04.875Z,2.62
2023-04-03T23:43:32.701Z,2.64
2023-04-03T23:46:00.794Z,2.63
2023-04-03T23:48:28.780Z,2.55
2023-04-03T23:50:56.926Z,2.59
2023-04-03T23:53:24.769Z,2.59
2023-04-03T23:55:52.706Z,2.59
2023-04-03T23:58:20.994Z,2.52
